Time,TemperatureF,DewpointF,PressureIn,WindDirection,WindDirectionDegrees,WindSpeedMPH,WindSpeedGustMPH,Humidity,HourlyPrecipIn,Conditions,Clouds,dailyrainin,SoftwareType,DateUTC
2013-08-04 00:00:00,50.0,33.0,-100.00,East,96,2.0,4.0,51,-99.99,,,-99.99,,2013-08-04 06:00:00,
2013-08-04 00:43:00,50.0,33.0,-100.00,East,96,2.0,4.0,51,-99.99,,,-99.99,,2013-08-04 06:43:00,
2013-08-04 00:52:00,50.0,33.0,-100.00,East,96,2.0,4.0,51,-99.99,,,-99.99,,2013-08-04 06:52:00,
2013-08-04 01:00:00,50.0,32.0,-100.00,ESE,113,2.0,4.0,50,-99.99,,,-99.99,,2013-08-04 07:00:00,
2013-08-04 01:43:00,50.0,32.0,-100.00,ESE,113,2.0,4.0,50,-99.99,,,-99.99,,2013-08-04 07:43:00,
2013-08-04 01:53:00,50.0,32.0,-100.00,ESE,113,2.0,4.0,50,-99.99,,,-99.99,,2013-08-04 07:53:00,
2013-08-04 02:00:00,50.0,32.0,-100.00,ESE,116,2.0,4.0,50,-99.99,,,-99.99,,2013-08-04 08:00:00,
2013-08-04 02:43:00,50.0,32.0,-100.00,ESE,116,2.0,4.0,50,-99.99,,,-99.99,,2013-08-04 08:43:00,
2013-08-04 02:53:00,50.0,32.0,-100.00,ESE,116,2.0,4.0,50,-99.99,,,-99.99,,2013-08-04 08:53:00,
2013-08-04 03:00:00,49.0,31.0,-100.00,ESE,102,2.0,4.0,50,-99.99,,,-99.99,,2013-08-04 09:00:00,
2013-08-04 03:43:00,49.0,31.0,-100.00,ESE,102,2.0,4.0,50,-99.99,,,-99.99,,2013-08-04 09:43:00,
2013-08-04 03:52:00,49.0,31.0,-100.00,ESE,102,2.0,4.0,50,-99.99,,,-99.99,,2013-08-04 09:52:00,
2013-08-04 04:00:00,49.0,32.0,-100.00,ENE,72,2.0,4.0,51,-99.99,,,-99.99,,2013-08-04 10:00:00,
2013-08-04 04:43:00,49.0,32.0,-100.00,ENE,72,2.0,4.0,51,-99.99,,,-99.99,,2013-08-04 10:43:00,
2013-08-04 04:53:00,49.0,32.0,-100.00,ENE,72,2.0,4.0,51,-99.99,,,-99.99,,2013-08-04 10:53:00,
2013-08-04 05:00:00,49.0,32.0,-100.00,ESE,118,2.0,5.0,52,-99.99,,,-99.99,,2013-08-04 11:00:00,
2013-08-04 05:42:00,49.0,32.0,-100.00,ESE,118,2.0,5.0,52,-99.99,,,-99.99,,2013-08-04 11:42:00,
2013-08-04 05:53:00,49.0,32.0,-100.00,ESE,118,2.0,5.0,52,-99.99,,,-99.99,,2013-08-04 11:53:00,
2013-08-04 06:00:00,49.0,32.0,-100.00,ESE,110,1.0,4.0,52,-99.99,,,-99.99,,2013-08-04 12:00:00,
2013-08-04 06:43:00,49.0,32.0,-100.00,ESE,110,1.0,4.0,52,-99.99,,,-99.99,,2013-08-04 12:43:00,
2013-08-04 06:53:00,49.0,32.0,-100.00,ESE,110,1.0,4.0,52,-99.99,,,-99.99,,2013-08-04 12:53:00,
2013-08-04 07:00:00,49.0,32.0,-100.00,NE,51,2.0,5.0,52,-99.99,,,-99.99,,2013-08-04 13:00:00,
2013-08-04 07:43:00,49.0,32.0,-100.00,NE,51,2.0,5.0,52,-99.99,,,-99.99,,2013-08-04 13:43:00,
2013-08-04 07:52:00,49.0,32.0,-100.00,NE,51,2.0,5.0,52,-99.99,,,-99.99,,2013-08-04 13:52:00,
2013-08-04 08:00:00,49.0,33.0,-100.00,East,97,2.0,4.0,52,-99.99,,,-99.99,,2013-08-04 14:00:00,
2013-08-04 08:43:00,49.0,33.0,-100.00,East,97,2.0,4.0,52,-99.99,,,-99.99,,2013-08-04 14:43:00,
2013-08-04 08:53:00,49.0,33.0,-100.00,East,97,2.0,4.0,52,-99.99,,,-99.99,,2013-08-04 14:53:00,
2013-08-04 09:00:00,49.0,35.0,-100.00,North,5,6.0,10.0,57,-99.99,,,-99.99,,2013-08-04 15:00:00,
2013-08-04 09:43:00,49.0,35.0,-100.00,North,5,6.0,10.0,57,-99.99,,,-99.99,,2013-08-04 15:43:00,
2013-08-04 09:53:00,49.0,35.0,-100.00,North,5,6.0,10.0,57,-99.99,,,-99.99,,2013-08-04 15:53:00,
2013-08-04 10:00:00,52.0,36.0,-100.00,North,353,6.0,9.0,56,-99.99,,,-99.99,,2013-08-04 16:00:00,
2013-08-04 10:42:00,52.0,36.0,-100.00,North,353,6.0,9.0,56,-99.99,,,-99.99,,2013-08-04 16:42:00,
2013-08-04 10:53:00,52.0,36.0,-100.00,North,353,6.0,9.0,56,-99.99,,,-99.99,,2013-08-04 16:53:00,
2013-08-04 11:00:00,53.0,38.0,-100.00,NNW,336,5.0,9.0,57,-99.99,,,-99.99,,2013-08-04 17:00:00,
2013-08-04 11:43:00,53.0,38.0,-100.00,NNW,336,5.0,9.0,57,-99.99,,,-99.99,,2013-08-04 17:43:00,
2013-08-04 11:53:00,53.0,38.0,-100.00,NNW,336,5.0,9.0,57,-99.99,,,-99.99,,2013-08-04 17:53:00,
2013-08-04 12:00:00,53.0,40.0,-100.00,NNW,330,8.0,16.0,59,-99.99,,,-99.99,,2013-08-04 18:00:00,
2013-08-04 12:43:00,53.0,40.0,-100.00,NNW,330,8.0,16.0,59,-99.99,,,-99.99,,2013-08-04 18:43:00,
2013-08-04 12:52:00,53.0,40.0,-100.00,NNW,330,8.0,16.0,59,-99.99,,,-99.99,,2013-08-04 18:52:00,
2013-08-04 13:00:00,52.0,40.0,-100.00,NW,319,8.0,16.0,64,-99.99,,,-99.99,,2013-08-04 19:00:00,
2013-08-04 13:44:00,52.0,40.0,-100.00,NW,319,8.0,16.0,64,-99.99,,,-99.99,,2013-08-04 19:44:00,
2013-08-04 13:53:00,52.0,40.0,-100.00,NW,319,8.0,16.0,64,-99.99,,,-99.99,,2013-08-04 19:53:00,
2013-08-04 14:00:00,52.0,43.0,-100.00,WSW,254,5.0,9.0,70,-99.99,,,-99.99,,2013-08-04 20:00:00,
2013-08-04 14:43:00,52.0,43.0,-100.00,WSW,254,5.0,9.0,70,-99.99,,,-99.99,,2013-08-04 20:43:00,
2013-08-04 14:53:00,52.0,43.0,-100.00,WSW,254,5.0,9.0,70,-99.99,,,-99.99,,2013-08-04 20:53:00,
2013-08-04 15:00:00,52.0,41.0,-100.00,West,274,9.0,24.0,66,-99.99,,,-99.99,,2013-08-04 21:00:00,
2013-08-04 15:43:00,52.0,41.0,-100.00,West,274,9.0,24.0,66,-99.99,,,-99.99,,2013-08-04 21:43:00,
2013-08-04 15:53:00,52.0,41.0,-100.00,West,274,9.0,24.0,66,-99.99,,,-99.99,,2013-08-04 21:53:00,
2013-08-04 16:00:00,52.0,41.0,-100.00,SW,218,8.0,18.0,65,-99.99,,,-99.99,,2013-08-04 22:00:00,
2013-08-04 16:43:00,52.0,41.0,-100.00,SW,218,8.0,18.0,65,-99.99,,,-99.99,,2013-08-04 22:43:00,
2013-08-04 16:53:00,52.0,41.0,-100.00,SW,218,8.0,18.0,65,-99.99,,,-99.99,,2013-08-04 22:53:00,
2013-08-04 17:00:00,50.0,40.0,-100.00,NNW,344,12.0,21.0,70,-99.99,,,-99.99,,2013-08-04 23:00:00,
2013-08-04 17:43:00,50.0,40.0,-100.00,NNW,344,12.0,21.0,70,-99.99,,,-99.99,,2013-08-04 23:43:00,
2013-08-04 17:53:00,50.0,40.0,-100.00,NNW,344,12.0,21.0,70,-99.99,,,-99.99,,2013-08-04 23:53:00,
2013-08-04 18:00:00,48.0,41.0,-100.00,NNW,344,15.0,21.0,77,-99.99,,,-99.99,,2013-08-05 00:00:00,
2013-08-04 18:42:00,48.0,41.0,-100.00,NNW,344,15.0,21.0,77,-99.99,,,-99.99,,2013-08-05 00:42:00,
2013-08-04 18:53:00,48.0,41.0,-100.00,NNW,344,15.0,21.0,77,-99.99,,,-99.99,,2013-08-05 00:53:00,
2013-08-04 19:00:00,46.0,44.0,-100.00,North,351,12.0,23.0,90,-99.99,,,-99.99,,2013-08-05 01:00:00,
2013-08-04 19:42:00,46.0,44.0,-100.00,North,351,12.0,23.0,90,-99.99,,,-99.99,,2013-08-05 01:42:00,
2013-08-04 19:52:00,46.0,44.0,-100.00,North,351,12.0,23.0,90,-99.99,,,-99.99,,2013-08-05 01:52:00,
2013-08-04 20:00:00,50.0,42.0,-100.00,NNW,341,3.0,7.0,71,-99.99,,,-99.99,,2013-08-05 02:00:00,
2013-08-04 20:43:00,50.0,42.0,-100.00,NNW,341,3.0,7.0,71,-99.99,,,-99.99,,2013-08-05 02:43:00,
2013-08-04 20:53:00,50.0,42.0,-100.00,NNW,341,3.0,7.0,71,-99.99,,,-99.99,,2013-08-05 02:53:00,
2013-08-04 21:00:00,50.0,39.0,-100.00,NNE,23,5.0,8.0,67,-99.99,,,-99.99,,2013-08-05 03:00:00,
2013-08-04 21:42:00,50.0,39.0,-100.00,NNE,23,5.0,8.0,67,-99.99,,,-99.99,,2013-08-05 03:42:00,
2013-08-04 21:53:00,50.0,39.0,-100.00,NNE,23,5.0,8.0,67,-99.99,,,-99.99,,2013-08-05 03:53:00,
2013-08-04 22:00:00,50.0,39.0,-100.00,ENE,70,5.0,8.0,64,-99.99,,,-99.99,,2013-08-05 04:00:00,
2013-08-04 22:43:00,50.0,39.0,-100.00,ENE,70,5.0,8.0,64,-99.99,,,-99.99,,2013-08-05 04:43:00,
2013-08-04 22:52:00,50.0,39.0,-100.00,ENE,70,5.0,8.0,64,-99.99,,,-99.99,,2013-08-05 04:52:00,
2013-08-04 23:00:00,50.0,39.0,-100.00,ESE,111,7.0,10.0,67,-99.99,,,-99.99,,2013-08-05 05:00:00,
2013-08-04 23:43:00,50.0,39.0,-100.00,ESE,111,7.0,10.0,67,-99.99,,,-99.99,,2013-08-05 05:43:00,
2013-08-04 23:53:00,50.0,39.0,-100.00,ESE,111,7.0,10.0,67,-99.99,,,-99.99,,2013-08-05 05:53:00,